x

Half Moon Bay - 24nm Ssw Of San Francisco, Ca (46012) Wave Buoy

9:50am - Fri 30th Sep 2016 All times are PDT. -7 hours from GMT.

  • Sig Wave height 4.9ft
  • Swell Direction
  • Peak Period 16s
  • Average Period 6s
  • Wind
    16mph, 18mph gusts
  • Sea Temp 59°f
  • Air Temp 57°f
  • Sea Pressure 1020.5mb
  • Half Moon Bay - 24nm Ssw Of San Francisco, Ca
  • Half Moon Bay - 24nm Ssw Of San Francisco, Ca

More Historic Weather Station data

Upgrade to MSW Pro to gain access to the past 30 days of data for over 8000 Wavebouys and Weather Stations around the globe.

Join Pro

Comparision Forecast

View Surf forecast
   
Fri 09/30 9:50am 5ft 16s 6s 16 18 mph 1020.5mb 59f 57f
8:50am 5ft 16s 6s 18 20 mph 1020.1mb 59f 57f
7:50am 5ft 5s 6s 16 18 mph 1020mb 59f 57f
6:50am 5ft 16s 6s 16 20 mph 1019.6mb 59f 57f
5:50am 5ft 16s 6s 18 20 mph 1019.5mb 59f 56f
4:50am 5ft 9s 6s 16 20 mph 1019.3mb 59f 56f
3:50am 5ft 8s 6s 13 18 mph 1019.3mb 59f 55f
2:50am 5ft 6s 6s 16 20 mph 1019.4mb 59f 55f
1:50am 5ft 16s 6s 13 18 mph 1019.2mb 59f 55f
12:50am 5ft 8s 6s 11 16 mph 1019mb 59f 55f
Thu 09/29 11:50pm 5ft 8s 6s 13 18 mph 1019.1mb 59f 55f
10:50pm 5ft 8s 6s 13 18 mph 1019.1mb 59f 55f
9:50pm 5ft 8s 6s 16 18 mph 1018.8mb 59f 55f
8:50pm 5ft 9s 6s 13 18 mph 1018.6mb 60f 55f
7:50pm 5.5ft 8s 6s 13 18 mph 1018.1mb 60f 56f
6:50pm 5.5ft 8s 6s 13 20 mph 1018mb 60f 56f
5:50pm 5ft 9s 6s 16 20 mph 1018.1mb 60f 56f
4:50pm 5.5ft 8s 6s 18 22 mph 1018.2mb 60f 57f
3:50pm 5ft 9s 6s 16 20 mph 1018.5mb 60f 57f
2:50pm 5ft 8s 6s 16 20 mph 1018.8mb 60f 56f
1:50pm 5ft 9s 6s 13 18 mph 1019mb 60f 56f
12:50pm 5.5ft 8s 6s 13 18 mph 1019.2mb 60f 56f
11:50am 6ft 9s 6s 11 16 mph 1019.4mb 60f 56f
10:50am 6ft 9s 6s 13 20 mph 1019.1mb 60f 56f
9:50am 6ft 8s 7s 13 18 mph 1018.7mb 60f 55f
8:50am 6ft 9s 7s 13 18 mph 1018.2mb 60f 55f
7:50am 6ft 10s 7s 13 16 mph 1017.5mb 60f 56f
6:50am 6ft 9s 7s 11 16 mph 1017mb 60f 56f
5:50am 6ft 9s 7s 11 16 mph 1016.6mb 60f 56f
4:50am 6.5ft 9s 7s 9 13 mph 1016mb 60f 57f
3:50am 6ft 9s 7s 7 11 mph 1015.8mb 60f 57f
2:50am 6ft 9s 7s 7 11 mph 1015.8mb 60f 57f
1:50am 7ft 9s 7s 7 11 mph 1015.7mb 60f 57f
12:50am 7ft 10s 7s 9 11 mph 1015.6mb 60f 57f
Wed 09/28 11:50pm 6.5ft 9s 7s 7 11 mph 1015.4mb 60f 57f
10:50pm 7ft 9s 7s 9 13 mph 1015.1mb 60f 56f
9:50pm 7.5ft 9s 7s 11 13 mph 1014.9mb 60f 56f
8:50pm 7ft 10s 7s 11 13 mph 1014.2mb 60f 56f
7:50pm 6ft 9s 7s 11 16 mph 1013.8mb 60f 56f
6:50pm 7ft 9s 7s 11 13 mph 1013.5mb 60f 56f
5:50pm 6.5ft 10s 7s 11 16 mph 1013.1mb 60f 56f
4:50pm 6.5ft 9s 7s 11 16 mph 1013.1mb 60f 56f
3:50pm 6ft 8s 7s 11 13 mph 1013.2mb 60f 56f
2:50pm 6ft 10s 7s 11 16 mph 1013.3mb 60f 56f
1:50pm 6ft 9s 7s 11 16 mph 1013.3mb 60f 56f
12:50pm 7ft 10s 7s 9 13 mph 1013.5mb 60f 56f
11:50am 6.5ft 9s 7s 7 11 mph 1013.5mb 60f 55f
10:50am 6.5ft 8s 7s 9 11 mph 1013.6mb 60f 55f
9:50am 6.5ft 9s 7s 11 13 mph 1013.3mb 60f 55f
8:50am 7ft 9s 7s 11 16 mph 1012.9mb 60f 56f
7:50am 6.5ft 9s 8s 11 16 mph 1012.4mb 60f 57f
6:50am 6ft 8s 8s 9 13 mph 1012mb 60f 58f
5:50am 5ft 10s 7s 9 13 mph 1011.8mb 60f 58f
4:50am 6ft 10s 8s 9 13 mph 1011.4mb 60f 58f
3:50am 5ft 10s 7s 9 11 mph 1011.3mb 60f 58f
2:50am 5.5ft 10s 7s 9 11 mph 1011.5mb 60f 58f
1:50am 5ft 9s 7s 11 13 mph 1011.5mb 60f 58f
12:50am 5.5ft 10s 7s 4 7 mph 1011.6mb 60f 57f
Tue 09/27 11:50pm 6ft 9s 7s 7
mph
1011.8mb 60f 56f
10:50pm 6.5ft 10s 8s 9 13 mph 1011.7mb 60f 55f
9:50pm 7ft 10s 8s 7 11 mph 1011.5mb 60f 55f
8:50pm 8ft 10s 8s 7 11 mph 1011.3mb 60f 55f
7:50pm 7ft 9s 8s 9 13 mph 1010.8mb 60f 55f
6:50pm 7.5ft 8s 8s 9 13 mph 1010.8mb 60f 56f
5:50pm 7ft 10s 8s 11 16 mph 1010.9mb 60f 56f
4:50pm 6ft 11s 8s 11 13 mph 1011.1mb 60f 56f
3:50pm 6ft 11s 8s 9 11 mph 1011.6mb 60f 56f
2:50pm 7ft 11s 8s 11 13 mph 1011.8mb 60f 56f
1:50pm 6.5ft 10s 8s 9 13 mph 1012.3mb 60f 56f
12:50pm 6.5ft 10s 8s 11 13 mph 1012.7mb 60f 56f
11:50am 6ft 9s 7s 9 11 mph 1013.3mb 60f 55f
10:50am 6.5ft 10s 8s 9 11 mph 1013.6mb 60f 55f
9:50am 6ft 10s 8s 11 13 mph 1013.5mb 60f 55f
8:50am 5ft 11s 8s 9 13 mph 1013.3mb 60f 55f
7:50am 5.5ft 11s 8s 9 13 mph 1012.9mb 60f 55f
6:50am 5ft 10s 8s 11 13 mph 1012.6mb 60f 55f
5:50am 5ft 15s 8s 9 11 mph 1012.4mb 60f 59f
4:50am 5ft 10s 8s 11 13 mph 1012.4mb 60f 59f
3:50am 4.5ft 9s 8s 9 11 mph 1012.8mb 60f 60f
2:50am 5ft 10s 8s 7 9 mph 1013mb 60f 60f
1:50am 5ft 10s 8s 4 7 mph 1013.2mb 60f 61f
12:50am 5ft 9s 8s 7 9 mph 1013.2mb 61f 61f
Mon 09/26 11:50pm 5ft 10s 8s 7 9 mph 1013.5mb 61f 62f
10:50pm 5ft 10s 8s 7
mph
1013.5mb 61f 62f
9:50pm 5ft 10s 8s 7 9 mph 1013.3mb 62f 62f
8:50pm 5ft 10s 8s 4 7 mph 1013.2mb 61f 62f
7:50pm 5ft 11s 8s 7 9 mph 1013mb 61f 62f
6:50pm 4.5ft 15s 9s 9 11 mph 1013mb 62f 64f